Terminal Aerodrome Forecast
Issued by NWS

Home | Current Version | Previous Version | Graphics & Text | Print | Product List | Glossary On
Versions: 1 2 3 4 5 6 7 8 9 10 11 12 13 14 15 16 17 18 19 20
000
FTUS43 KIWX 231728
TAFSBN
TAF
KSBN 231728Z 2318/2418 35008KT P6SM BKN015
     FM232300 04008KT P6SM SCT015 OVC040
     FM240300 08010KT 3SM -SHRA BR OVC020
     FM240600 10010KT 2SM -SHRA BR OVC010 WS020/20040KT PROB30
      2409/2412 1SM TSRA BR OVC006CB
     FM241600 19013G23KT P6SM OVC015=

USA.gov is the U.S. government's official web portal to all federal, state and local government web resources and services.